Time;durP1;ratioP1;P1;durP2;ratioP2;P2;SDS_P1;SDS_P2;PMS_P1;PMS_P2;Temp;Humidity;BMP_temperature;BMP_pressure;BME280_temperature;BME280_humidity;BME280_pressure;Samples;Min_cycle;Max_cycle;Signal;HPM_P1;HPM_P2
2022/06/27 00:00:16;;;;;;;5.47;2.30;;;;;;;;;;10262588;28;20490;-83
2022/06/27 00:05:18;;;;;;;4.53;2.33;;;;;;;;;;10264513;28;20966;-83
2022/06/27 00:10:21;;;;;;;4.30;2.47;;;;;;;;;;10261587;28;20421;-83
2022/06/27 00:15:23;;;;;;;4.72;2.50;;;;;;;;;;10264354;28;20414;-82
2022/06/27 00:20:25;;;;;;;5.03;2.80;;;;;;;;;;10267121;28;20495;-83
2022/06/27 00:25:29;;;;;;;5.10;2.92;;;;;;;;;;10260035;28;20434;-83
2022/06/27 00:30:31;;;;;;;5.18;3.03;;;;;;;;;;10260387;28;20498;-83
2022/06/27 00:35:33;;;;;;;6.50;3.13;;;;;;;;;;10266969;28;20497;-83
2022/06/27 00:40:36;;;;;;;5.65;3.25;;;;;;;;;;10264072;28;20403;-83
2022/06/27 00:45:38;;;;;;;6.18;2.80;;;;;;;;;;10273286;28;20428;-84
2022/06/27 00:50:41;;;;;;;5.78;3.22;;;;;;;;;;10264425;28;20409;-83
2022/06/27 00:55:45;;;;;;;5.63;2.83;;;;;;;;;;10254596;28;20416;-82
2022/06/27 01:00:47;;;;;;;4.18;3.00;;;;;;;;;;10261004;28;20491;-83
2022/06/27 01:05:52;;;;;;;4.97;2.90;;;;;;;;;;10255531;28;20436;-83
2022/06/27 01:10:55;;;;;;;7.82;3.85;;;;;;;;;;10256778;28;20892;-82
2022/06/27 01:15:57;;;;;;;4.27;2.83;;;;;;;;;;10256268;28;20923;-83
2022/06/27 01:21:00;;;;;;;6.22;3.90;;;;;;;;;;10259043;28;20411;-83
2022/06/27 01:26:04;;;;;;;9.20;3.77;;;;;;;;;;10258375;28;20439;-82
2022/06/27 01:31:05;;;;;;;7.40;4.32;;;;;;;;;;10255752;28;20426;-82
2022/06/27 01:41:28;;;;;;;6.07;3.88;;;;;;;;;;10258535;28;20472;-83
2022/06/27 01:46:39;;;;;;;6.47;3.67;;;;;;;;;;10264687;28;20437;-83
2022/06/27 01:51:42;;;;;;;5.88;4.05;;;;;;;;;;10263151;28;20493;-83
2022/06/27 01:56:49;;;;;;;5.87;4.20;;;;;;;;;;10257266;28;20484;-83
2022/06/27 02:01:51;;;;;;;6.35;4.97;;;;;;;;;;10257851;28;20410;-83
2022/06/27 02:06:53;;;;;;;7.00;5.22;;;;;;;;;;10238047;28;20480;-83
2022/06/27 02:11:56;;;;;;;7.20;5.35;;;;;;;;;;10248715;28;20414;-82
2022/06/27 02:16:59;;;;;;;7.83;5.60;;;;;;;;;;10258126;28;20418;-83
2022/06/27 02:22:01;;;;;;;7.32;5.20;;;;;;;;;;10248902;28;20927;-82
2022/06/27 02:27:05;;;;;;;7.55;5.30;;;;;;;;;;10255509;28;20406;-82
2022/06/27 02:32:08;;;;;;;6.68;5.28;;;;;;;;;;10242683;28;20420;-82
2022/06/27 02:37:11;;;;;;;7.28;5.10;;;;;;;;;;10247773;28;20412;-82
2022/06/27 02:42:15;;;;;;;7.43;5.20;;;;;;;;;;10241251;28;20434;-83
2022/06/27 02:47:20;;;;;;;7.33;4.70;;;;;;;;;;10244016;28;20452;-82
2022/06/27 02:52:30;;;;;;;7.95;4.40;;;;;;;;;;10275429;28;20507;-82
2022/06/27 02:57:39;;;;;;;6.40;4.23;;;;;;;;;;10240965;28;20448;-82
2022/06/27 03:02:43;;;;;;;8.60;4.77;;;;;;;;;;10240167;28;20435;-83
2022/06/27 03:07:45;;;;;;;8.33;5.10;;;;;;;;;;10257574;28;20463;-83
2022/06/27 03:12:48;;;;;;;6.90;4.90;;;;;;;;;;10262248;28;20408;-82
2022/06/27 03:17:50;;;;;;;6.57;4.32;;;;;;;;;;10260707;28;20419;-82
2022/06/27 03:22:52;;;;;;;8.77;4.15;;;;;;;;;;10263545;28;20513;-82
2022/06/27 03:27:55;;;;;;;8.43;3.80;;;;;;;;;;10264261;28;20446;-82
2022/06/27 03:32:57;;;;;;;7.25;3.72;;;;;;;;;;10258504;28;20501;-82
2022/06/27 03:37:59;;;;;;;11.18;4.10;;;;;;;;;;10264186;28;20497;-82
2022/06/27 03:43:03;;;;;;;4.07;3.45;;;;;;;;;;10257739;28;20962;-82
2022/06/27 03:48:05;;;;;;;7.47;4.20;;;;;;;;;;10270958;28;20859;-83
2022/06/27 03:53:07;;;;;;;9.98;4.10;;;;;;;;;;10276801;28;20491;-82
2022/06/27 03:58:10;;;;;;;6.85;3.95;;;;;;;;;;10238110;28;20519;-83
2022/06/27 04:03:12;;;;;;;6.75;3.80;;;;;;;;;;10237661;28;20427;-82
2022/06/27 04:08:14;;;;;;;6.70;3.75;;;;;;;;;;10254258;28;20488;-83
2022/06/27 04:13:17;;;;;;;11.60;4.32;;;;;;;;;;10257444;28;20488;-83
2022/06/27 04:18:19;;;;;;;7.77;3.77;;;;;;;;;;10261098;28;20449;-82
2022/06/27 04:23:21;;;;;;;8.10;4.25;;;;;;;;;;10257387;28;20549;-84
2022/06/27 04:28:24;;;;;;;9.13;4.10;;;;;;;;;;10256184;28;20535;-84
2022/06/27 04:33:26;;;;;;;10.77;4.20;;;;;;;;;;10258575;28;20792;-84
2022/06/27 04:38:29;;;;;;;6.85;4.45;;;;;;;;;;10257062;28;20499;-83
2022/06/27 04:43:34;;;;;;;9.70;4.93;;;;;;;;;;10256434;28;20801;-84
2022/06/27 04:48:37;;;;;;;7.07;4.87;;;;;;;;;;10254466;28;20525;-83
2022/06/27 04:53:38;;;;;;;7.38;5.07;;;;;;;;;;10260550;28;20573;-84
2022/06/27 04:58:42;;;;;;;8.10;5.10;;;;;;;;;;10256546;28;20491;-83
2022/06/27 05:03:44;;;;;;;9.80;5.63;;;;;;;;;;10256998;28;20509;-83
2022/06/27 05:08:46;;;;;;;9.25;5.20;;;;;;;;;;10257568;28;20416;-83
2022/06/27 05:13:49;;;;;;;7.00;5.47;;;;;;;;;;10255598;28;20456;-83
2022/06/27 05:18:51;;;;;;;9.88;5.30;;;;;;;;;;10257808;28;20434;-83
2022/06/27 05:23:53;;;;;;;9.32;5.47;;;;;;;;;;10255377;28;20438;-83
2022/06/27 05:28:56;;;;;;;8.65;5.85;;;;;;;;;;10256991;28;20422;-84
2022/06/27 05:33:58;;;;;;;7.67;5.90;;;;;;;;;;10256394;28;20423;-83
2022/06/27 05:39:00;;;;;;;10.15;5.82;;;;;;;;;;10256566;28;20410;-87
2022/06/27 05:44:04;;;;;;;9.38;6.22;;;;;;;;;;10249417;28;20446;-83
2022/06/27 05:49:07;;;;;;;8.93;6.03;;;;;;;;;;10239455;28;20427;-83
2022/06/27 05:54:09;;;;;;;8.18;5.32;;;;;;;;;;10246803;28;20461;-83
2022/06/27 05:59:13;;;;;;;8.32;5.10;;;;;;;;;;10251128;28;20490;-83
2022/06/27 06:04:16;;;;;;;7.35;4.78;;;;;;;;;;10259303;28;20426;-83
2022/06/27 06:09:17;;;;;;;8.90;5.00;;;;;;;;;;10257280;28;20414;-83
2022/06/27 06:14:21;;;;;;;10.53;4.93;;;;;;;;;;10266212;28;20513;-83
2022/06/27 06:19:25;;;;;;;8.82;4.63;;;;;;;;;;10265470;28;20588;-83
2022/06/27 06:24:27;;;;;;;10.02;4.25;;;;;;;;;;10262835;28;20443;-83
2022/06/27 06:29:30;;;;;;;11.38;4.93;;;;;;;;;;10255674;28;20526;-83
2022/06/27 06:34:32;;;;;;;8.43;4.32;;;;;;;;;;10260449;28;20503;-82
2022/06/27 06:39:34;;;;;;;6.45;4.18;;;;;;;;;;10260590;28;20498;-83
2022/06/27 06:44:38;;;;;;;7.05;4.40;;;;;;;;;;10263339;28;20521;-83
2022/06/27 06:49:41;;;;;;;6.67;3.97;;;;;;;;;;10265271;28;20721;-83
2022/06/27 06:54:44;;;;;;;7.00;3.80;;;;;;;;;;10259028;28;20414;-82
2022/06/27 06:59:48;;;;;;;8.05;4.25;;;;;;;;;;10258437;28;20414;-83
2022/06/27 07:04:50;;;;;;;7.90;3.70;;;;;;;;;;10257289;28;20428;-83
2022/06/27 07:09:52;;;;;;;8.80;3.90;;;;;;;;;;10250518;28;20447;-83
2022/06/27 07:14:56;;;;;;;6.85;3.85;;;;;;;;;;10248998;28;20438;-83
2022/06/27 07:19:58;;;;;;;8.27;3.60;;;;;;;;;;10247363;28;20421;-83
2022/06/27 07:25:00;;;;;;;8.83;3.60;;;;;;;;;;10247272;28;20444;-82
2022/06/27 07:30:05;;;;;;;7.13;3.78;;;;;;;;;;10251238;28;20435;-84
2022/06/27 07:35:09;;;;;;;8.07;3.42;;;;;;;;;;10248520;28;20475;-82
2022/06/27 07:40:12;;;;;;;6.50;3.45;;;;;;;;;;10255104;28;20416;-83
2022/06/27 07:45:15;;;;;;;5.93;3.70;;;;;;;;;;10248112;28;20845;-83
2022/06/27 07:55:33;;;;;;;7.27;3.40;;;;;;;;;;10254250;28;20399;-83
2022/06/27 08:00:37;;;;;;;6.35;3.70;;;;;;;;;;10252159;28;20495;-83
2022/06/27 08:05:39;;;;;;;5.40;3.30;;;;;;;;;;10262348;28;20438;-83
2022/06/27 08:10:41;;;;;;;6.50;3.20;;;;;;;;;;10257329;28;20417;-84
2022/06/27 08:15:45;;;;;;;6.93;3.22;;;;;;;;;;10256990;28;20590;-83
2022/06/27 08:20:47;;;;;;;5.82;3.42;;;;;;;;;;10257141;28;20439;-84
2022/06/27 08:25:49;;;;;;;13.95;4.00;;;;;;;;;;10249589;28;20438;-83
2022/06/27 08:30:52;;;;;;;6.03;2.90;;;;;;;;;;10251363;28;20680;-83
2022/06/27 08:35:56;;;;;;;6.27;2.97;;;;;;;;;;10253314;28;20444;-83
2022/06/27 08:40:59;;;;;;;5.55;2.60;;;;;;;;;;10248849;28;20427;-84
2022/06/27 08:46:03;;;;;;;4.90;2.40;;;;;;;;;;10251231;28;20547;-84
2022/06/27 08:51:05;;;;;;;6.87;2.47;;;;;;;;;;10250056;28;20412;-84
2022/06/27 08:56:09;;;;;;;3.90;2.47;;;;;;;;;;10236948;28;20505;-85
2022/06/27 09:01:15;;;;;;;4.43;2.37;;;;;;;;;;10237911;28;21103;-84
2022/06/27 09:06:17;;;;;;;4.93;2.80;;;;;;;;;;10234109;28;20672;-84
2022/06/27 09:11:28;;;;;;;4.60;2.60;;;;;;;;;;10233733;28;20508;-84
2022/06/27 09:16:31;;;;;;;4.53;2.63;;;;;;;;;;10236779;28;20514;-85
2022/06/27 09:21:33;;;;;;;7.32;2.38;;;;;;;;;;10238100;28;20421;-85
2022/06/27 09:26:36;;;;;;;5.53;2.20;;;;;;;;;;10237841;28;20430;-84
2022/06/27 09:31:42;;;;;;;4.20;2.40;;;;;;;;;;10239422;28;20420;-85
2022/06/27 09:36:46;;;;;;;6.05;2.45;;;;;;;;;;10252926;28;20964;-85
2022/06/27 09:41:56;;;;;;;5.23;2.73;;;;;;;;;;10248872;28;20476;-84
2022/06/27 09:47:04;;;;;;;7.22;2.55;;;;;;;;;;10242854;28;20429;-85
2022/06/27 09:52:08;;;;;;;6.10;2.45;;;;;;;;;;10239339;28;20423;-84
2022/06/27 09:57:12;;;;;;;7.43;2.67;;;;;;;;;;10245196;28;20410;-83
2022/06/27 10:02:17;;;;;;;3.77;2.57;;;;;;;;;;10241659;28;20418;-83
2022/06/27 10:07:20;;;;;;;4.50;2.20;;;;;;;;;;10240379;28;20432;-82
2022/06/27 10:12:27;;;;;;;3.83;2.27;;;;;;;;;;10247944;28;20426;-84
2022/06/27 10:17:33;;;;;;;6.07;2.22;;;;;;;;;;10246037;28;20457;-84
2022/06/27 10:22:35;;;;;;;5.20;2.10;;;;;;;;;;10243609;28;20925;-84
2022/06/27 10:27:38;;;;;;;6.55;2.08;;;;;;;;;;10243146;28;20439;-82
2022/06/27 10:32:46;;;;;;;4.65;1.75;;;;;;;;;;10245341;28;20430;-83
2022/06/27 10:37:48;;;;;;;7.63;1.58;;;;;;;;;;10242540;28;20422;-84
2022/06/27 10:42:51;;;;;;;7.50;1.70;;;;;;;;;;10243555;28;20419;-83
2022/06/27 10:47:57;;;;;;;6.13;1.70;;;;;;;;;;10245425;28;20426;-84
2022/06/27 10:53:22;;;;;;;4.63;1.70;;;;;;;;;;10248173;28;20420;-82
2022/06/27 10:58:29;;;;;;;4.57;1.50;;;;;;;;;;10246599;28;20433;-82
2022/06/27 11:03:39;;;;;;;6.50;1.60;;;;;;;;;;10244934;28;20427;-82
2022/06/27 11:08:43;;;;;;;5.87;1.30;;;;;;;;;;10247554;28;20418;-83
2022/06/27 11:13:47;;;;;;;8.00;1.60;;;;;;;;;;10242842;28;20443;-83
2022/06/27 11:18:52;;;;;;;4.90;1.50;;;;;;;;;;10238353;28;20437;-83
2022/06/27 11:23:57;;;;;;;4.18;1.70;;;;;;;;;;10240339;28;21183;-83
2022/06/27 11:34:21;;;;;;;6.97;2.15;;;;;;;;;;10236803;28;21174;-84
2022/06/27 11:39:24;;;;;;;4.90;1.85;;;;;;;;;;10238897;28;20432;-83
2022/06/27 11:44:27;;;;;;;8.10;1.60;;;;;;;;;;10238886;28;20437;-81
2022/06/27 11:49:31;;;;;;;8.35;1.48;;;;;;;;;;10239174;28;20990;-83
2022/06/27 11:54:41;;;;;;;5.78;1.40;;;;;;;;;;10240569;28;20526;-84
2022/06/27 11:59:48;;;;;;;4.57;1.42;;;;;;;;;;10241762;28;20891;-83
2022/06/27 12:05:03;;;;;;;3.78;1.30;;;;;;;;;;10245322;28;21043;-83
2022/06/27 12:10:06;;;;;;;5.28;1.67;;;;;;;;;;10241784;28;20506;-82
2022/06/27 12:15:19;;;;;;;5.00;1.40;;;;;;;;;;10245455;28;21041;-84
2022/06/27 12:20:23;;;;;;;4.28;1.30;;;;;;;;;;10244064;28;21016;-83
2022/06/27 12:25:26;;;;;;;18.40;2.37;;;;;;;;;;10253007;28;20521;-84
2022/06/27 12:30:27;;;;;;;6.70;2.03;;;;;;;;;;10251161;28;21316;-83
2022/06/27 12:35:31;;;;;;;7.65;1.77;;;;;;;;;;10247323;28;21721;-83
2022/06/27 12:40:32;;;;;;;4.33;1.60;;;;;;;;;;10245902;28;20406;-83
2022/06/27 12:45:35;;;;;;;11.65;2.08;;;;;;;;;;10251450;28;20430;-84
2022/06/27 12:50:39;;;;;;;10.48;2.10;;;;;;;;;;10246392;28;20486;-84
2022/06/27 12:55:42;;;;;;;9.02;1.90;;;;;;;;;;10244324;28;20422;-84
2022/06/27 13:00:44;;;;;;;7.63;1.90;;;;;;;;;;10244503;28;20412;-83
2022/06/27 13:05:48;;;;;;;8.65;1.75;;;;;;;;;;10254979;28;20976;-83
2022/06/27 13:10:50;;;;;;;18.73;2.40;;;;;;;;;;10241024;28;20455;-83
2022/06/27 13:15:51;;;;;;;9.70;2.30;;;;;;;;;;10245060;28;20407;-82
2022/06/27 13:20:55;;;;;;;9.35;2.20;;;;;;;;;;10246799;28;20416;-82
2022/06/27 13:25:57;;;;;;;9.83;2.20;;;;;;;;;;10243831;28;20778;-84
2022/06/27 13:30:59;;;;;;;8.32;2.00;;;;;;;;;;10243963;28;20424;-83
2022/06/27 13:36:02;;;;;;;13.48;2.47;;;;;;;;;;10232766;28;20408;-83
2022/06/27 13:41:04;;;;;;;11.60;2.15;;;;;;;;;;10244481;28;20588;-84
2022/06/27 13:51:11;;;;;;;10.10;2.63;;;;;;;;;;10134671;29;20471;-84
2022/06/27 13:56:13;;;;;;;10.50;2.50;;;;;;;;;;10142732;29;20435;-84
2022/06/27 14:01:14;;;;;;;9.52;2.30;;;;;;;;;;10144141;29;20434;-83
2022/06/27 14:11:37;;;;;;;12.50;2.58;;;;;;;;;;10143543;29;20429;-83
2022/06/27 14:16:39;;;;;;;11.48;2.65;;;;;;;;;;10153415;29;20419;-83
2022/06/27 14:21:42;;;;;;;9.07;2.30;;;;;;;;;;10153455;29;20427;-83
2022/06/27 14:26:44;;;;;;;11.13;2.30;;;;;;;;;;10152802;29;20788;-84
2022/06/27 14:31:46;;;;;;;18.63;3.03;;;;;;;;;;10152603;29;20442;-83
2022/06/27 14:36:49;;;;;;;14.03;3.10;;;;;;;;;;10155687;29;20415;-86
2022/06/27 14:41:54;;;;;;;11.90;2.58;;;;;;;;;;10138570;29;20421;-84
2022/06/27 14:46:56;;;;;;;10.23;2.30;;;;;;;;;;10143057;29;20496;-85
2022/06/27 14:51:59;;;;;;;11.27;2.60;;;;;;;;;;10143500;29;20409;-84
2022/06/27 14:57:01;;;;;;;10.10;2.65;;;;;;;;;;10139873;29;20423;-85
2022/06/27 15:02:03;;;;;;;10.43;2.58;;;;;;;;;;10142448;29;20433;-86
2022/06/27 15:07:07;;;;;;;7.72;2.38;;;;;;;;;;10147076;29;20442;-84
2022/06/27 15:12:09;;;;;;;22.63;2.80;;;;;;;;;;10131435;29;20425;-85
2022/06/27 15:17:11;;;;;;;6.93;2.30;;;;;;;;;;10137638;29;20581;-85
2022/06/27 15:22:14;;;;;;;7.93;2.10;;;;;;;;;;10138177;29;20431;-85
2022/06/27 15:27:16;;;;;;;8.95;2.22;;;;;;;;;;10135505;29;20439;-86
2022/06/27 15:32:19;;;;;;;10.20;2.27;;;;;;;;;;10147960;29;20761;-85
2022/06/27 15:37:22;;;;;;;8.47;2.50;;;;;;;;;;10143620;29;20433;-85
2022/06/27 15:42:26;;;;;;;10.65;2.53;;;;;;;;;;10136146;29;20508;-85
2022/06/27 15:47:27;;;;;;;9.93;2.97;;;;;;;;;;10143764;29;20461;-85
2022/06/27 15:52:34;;;;;;;12.70;2.72;;;;;;;;;;10145465;29;20514;-85
2022/06/27 15:57:36;;;;;;;10.75;2.63;;;;;;;;;;10139015;29;20515;-85
2022/06/27 16:02:39;;;;;;;15.07;2.55;;;;;;;;;;10140995;29;20825;-86
2022/06/27 16:07:43;;;;;;;7.45;2.35;;;;;;;;;;10137881;29;20439;-85
2022/06/27 16:12:46;;;;;;;8.47;2.40;;;;;;;;;;10142766;29;20931;-85
2022/06/27 16:17:47;;;;;;;11.45;2.65;;;;;;;;;;10128519;29;20612;-85
2022/06/27 16:22:51;;;;;;;11.65;2.50;;;;;;;;;;10131581;29;20636;-86
2022/06/27 16:27:52;;;;;;;8.13;2.10;;;;;;;;;;10136507;29;20940;-85
2022/06/27 16:32:54;;;;;;;13.40;2.60;;;;;;;;;;10144893;29;20924;-83
2022/06/27 16:37:57;;;;;;;12.70;2.72;;;;;;;;;;10146288;29;20416;-83
2022/06/27 16:43:18;;;;;;;15.17;2.70;;;;;;;;;;10132080;29;20413;-84
2022/06/27 16:48:22;;;;;;;9.02;2.67;;;;;;;;;;10136909;29;20437;-83
2022/06/27 16:53:25;;;;;;;11.70;2.83;;;;;;;;;;10138056;29;20433;-83
2022/06/27 16:58:28;;;;;;;13.00;2.88;;;;;;;;;;10133489;29;20419;-83
2022/06/27 17:03:30;;;;;;;13.93;2.90;;;;;;;;;;10142946;29;20430;-84
2022/06/27 17:08:34;;;;;;;14.27;2.93;;;;;;;;;;10137762;29;20427;-84
2022/06/27 17:13:35;;;;;;;9.75;2.47;;;;;;;;;;10132619;29;20430;-85
2022/06/27 17:18:37;;;;;;;12.67;2.57;;;;;;;;;;10133017;29;20516;-86
2022/06/27 17:23:42;;;;;;;9.80;2.85;;;;;;;;;;10133671;29;20425;-80
2022/06/27 17:28:44;;;;;;;9.18;2.10;;;;;;;;;;10131688;29;20466;-86
2022/06/27 17:33:46;;;;;;;9.20;2.53;;;;;;;;;;10124714;29;20449;-86
2022/06/27 17:38:49;;;;;;;8.77;2.47;;;;;;;;;;10131047;29;20434;-85
2022/06/27 17:43:55;;;;;;;28.35;3.88;;;;;;;;;;10138734;29;20431;-86
2022/06/27 17:48:57;;;;;;;9.63;2.60;;;;;;;;;;10140371;29;20467;-86
2022/06/27 17:54:01;;;;;;;9.95;2.70;;;;;;;;;;10153306;29;20447;-87
2022/06/27 17:59:02;;;;;;;11.33;2.30;;;;;;;;;;10155198;29;20430;-84
2022/06/27 18:04:04;;;;;;;10.07;2.65;;;;;;;;;;10147862;29;20437;-83
2022/06/27 18:09:07;;;;;;;11.10;2.60;;;;;;;;;;10151806;29;20431;-84
2022/06/27 18:14:10;;;;;;;10.00;2.38;;;;;;;;;;10143163;29;20435;-82
2022/06/27 18:19:12;;;;;;;11.63;3.17;;;;;;;;;;10137904;29;20940;-83
2022/06/27 18:24:15;;;;;;;10.90;2.53;;;;;;;;;;10135265;29;20512;-83
2022/06/27 18:29:17;;;;;;;10.20;2.35;;;;;;;;;;10146499;29;20523;-82
2022/06/27 18:34:19;;;;;;;10.32;2.33;;;;;;;;;;10150821;29;20516;-83
2022/06/27 18:39:23;;;;;;;10.88;2.78;;;;;;;;;;10138096;29;20429;-83
2022/06/27 18:44:25;;;;;;;9.02;2.50;;;;;;;;;;10139974;29;20415;-83
2022/06/27 18:49:27;;;;;;;11.10;2.42;;;;;;;;;;10140294;29;20435;-84
2022/06/27 18:54:31;;;;;;;12.13;2.70;;;;;;;;;;10138790;29;20446;-82
2022/06/27 18:59:32;;;;;;;9.82;2.70;;;;;;;;;;10131912;29;20441;-84
2022/06/27 19:04:34;;;;;;;7.80;3.03;;;;;;;;;;10128726;29;20437;-83
2022/06/27 19:09:38;;;;;;;8.98;2.40;;;;;;;;;;10129906;29;20437;-82
2022/06/27 19:14:40;;;;;;;8.80;2.30;;;;;;;;;;10129084;29;20421;-83
2022/06/27 19:19:42;;;;;;;10.85;2.50;;;;;;;;;;10127197;29;20430;-86
2022/06/27 19:24:45;;;;;;;11.03;2.90;;;;;;;;;;10139170;29;20538;-86
2022/06/27 19:29:47;;;;;;;11.90;3.00;;;;;;;;;;10130967;29;20435;-87
2022/06/27 19:34:49;;;;;;;8.88;2.75;;;;;;;;;;10135583;29;20518;-86
2022/06/27 19:39:52;;;;;;;10.82;2.95;;;;;;;;;;10126526;29;20426;-87
2022/06/27 19:44:54;;;;;;;9.30;2.93;;;;;;;;;;10132997;29;20434;-86
2022/06/27 19:49:56;;;;;;;10.63;2.53;;;;;;;;;;10139889;29;20458;-86
2022/06/27 19:55:00;;;;;;;7.68;2.22;;;;;;;;;;10140739;29;20427;-86
2022/06/27 20:00:02;;;;;;;8.53;2.50;;;;;;;;;;10133717;29;20522;-86
2022/06/27 20:05:04;;;;;;;11.13;2.60;;;;;;;;;;10135021;29;20797;-86
2022/06/27 20:10:11;;;;;;;8.30;2.67;;;;;;;;;;10133836;29;20502;-85
2022/06/27 20:15:13;;;;;;;11.50;3.40;;;;;;;;;;10133744;29;20557;-87
2022/06/27 20:20:17;;;;;;;11.82;3.10;;;;;;;;;;10132311;29;20421;-86
2022/06/27 20:25:22;;;;;;;10.90;3.08;;;;;;;;;;10135235;29;20430;-85
2022/06/27 20:30:24;;;;;;;11.55;3.28;;;;;;;;;;10122642;29;20550;-86
2022/06/27 20:35:27;;;;;;;15.52;2.97;;;;;;;;;;10128103;29;20425;-85
2022/06/27 20:40:30;;;;;;;13.45;3.47;;;;;;;;;;10123828;29;20515;-86
2022/06/27 20:45:32;;;;;;;12.32;2.90;;;;;;;;;;10130234;29;20431;-87
2022/06/27 20:50:34;;;;;;;7.40;3.17;;;;;;;;;;10132077;29;20439;-86
2022/06/27 20:55:37;;;;;;;9.23;2.97;;;;;;;;;;10137098;29;20757;-86
2022/06/27 21:00:39;;;;;;;11.00;3.17;;;;;;;;;;10131331;29;20419;-87
2022/06/27 21:05:42;;;;;;;10.38;3.17;;;;;;;;;;10129076;29;21642;-87
2022/06/27 21:16:06;;;;;;;12.15;3.55;;;;;;;;;;10139394;29;20412;-86
2022/06/27 21:21:08;;;;;;;10.17;3.10;;;;;;;;;;10137540;29;20463;-86
2022/06/27 21:26:11;;;;;;;10.40;3.10;;;;;;;;;;10143942;29;20882;-85
2022/06/27 21:31:14;;;;;;;11.65;3.85;;;;;;;;;;10142322;29;20437;-86
2022/06/27 21:36:16;;;;;;;10.05;3.03;;;;;;;;;;10142420;29;20427;-86
2022/06/27 21:41:19;;;;;;;10.55;3.45;;;;;;;;;;10140136;29;20424;-85
2022/06/27 21:46:21;;;;;;;15.75;3.80;;;;;;;;;;10134272;29;20435;-85
2022/06/27 21:51:23;;;;;;;10.27;3.28;;;;;;;;;;10137365;29;20449;-85
2022/06/27 21:56:26;;;;;;;9.57;3.23;;;;;;;;;;10133989;29;20450;-84
2022/06/27 22:01:28;;;;;;;15.77;3.70;;;;;;;;;;10138397;29;20424;-85
2022/06/27 22:06:30;;;;;;;10.30;3.77;;;;;;;;;;10131652;29;20449;-84
2022/06/27 22:11:33;;;;;;;15.23;3.75;;;;;;;;;;10126036;29;20460;-84
2022/06/27 22:16:35;;;;;;;15.48;4.20;;;;;;;;;;10131722;29;20483;-85
2022/06/27 22:21:37;;;;;;;12.63;3.20;;;;;;;;;;10135194;29;20428;-84
2022/06/27 22:26:40;;;;;;;12.18;4.18;;;;;;;;;;10138769;29;20892;-83
2022/06/27 22:31:42;;;;;;;10.20;3.90;;;;;;;;;;10142043;29;20427;-85
2022/06/27 22:36:43;;;;;;;12.50;3.45;;;;;;;;;;10147331;29;20429;-85
2022/06/27 22:41:47;;;;;;;12.93;3.50;;;;;;;;;;10156073;29;20419;-85
2022/06/27 22:46:49;;;;;;;10.85;3.58;;;;;;;;;;10149665;29;20437;-84
2022/06/27 22:51:50;;;;;;;11.30;2.85;;;;;;;;;;10159619;29;20415;-85
2022/06/27 22:56:54;;;;;;;11.50;3.22;;;;;;;;;;10152389;29;20408;-85
2022/06/27 23:01:57;;;;;;;10.90;3.28;;;;;;;;;;10151778;29;20415;-85
2022/06/27 23:06:59;;;;;;;9.97;3.10;;;;;;;;;;10157091;29;20467;-85
2022/06/27 23:12:02;;;;;;;11.97;3.00;;;;;;;;;;10153723;29;20415;-85
2022/06/27 23:17:04;;;;;;;11.93;3.10;;;;;;;;;;10150914;29;20511;-85
2022/06/27 23:22:06;;;;;;;13.00;3.42;;;;;;;;;;10157557;29;20502;-85
2022/06/27 23:27:09;;;;;;;16.73;3.63;;;;;;;;;;10153378;29;20420;-85
2022/06/27 23:32:12;;;;;;;11.83;3.43;;;;;;;;;;10153751;29;20707;-85
2022/06/27 23:37:16;;;;;;;9.43;3.17;;;;;;;;;;10152351;29;20424;-85
2022/06/27 23:42:19;;;;;;;10.10;3.70;;;;;;;;;;10151268;29;20897;-84
2022/06/27 23:47:21;;;;;;;13.82;3.67;;;;;;;;;;10157524;29;20778;-85
2022/06/27 23:52:22;;;;;;;12.50;3.60;;;;;;;;;;10154628;29;20421;-84
2022/06/27 23:57:26;;;;;;;15.30;3.83;;;;;;;;;;10150079;29;20417;-84
